Time;durP1;ratioP1;P1;durP2;ratioP2;P2;SDS_P1;SDS_P2;PMS_P1;PMS_P2;Temp;Humidity;BMP_temperature;BMP_pressure;BME280_temperature;BME280_humidity;BME280_pressure;Samples;Min_cycle;Max_cycle;Signal;HPM_P1;HPM_P2
2022/03/16 00:01:53;;;;;;;10.65;6.20;;;;;;;;;;5111201;28;20076;-72
2022/03/16 00:04:19;;;;;;;10.00;6.93;;;;;;;;;;5090361;28;20035;-72
2022/03/16 00:06:45;;;;;;;9.00;6.82;;;;;;;;;;5110308;28;20031;-72
2022/03/16 00:09:11;;;;;;;8.68;6.28;;;;;;;;;;5109729;28;20496;-73
2022/03/16 00:11:37;;;;;;;7.90;6.35;;;;;;;;;;5108295;28;20016;-73
2022/03/16 00:14:03;;;;;;;7.43;5.88;;;;;;;;;;5090425;28;20408;-72
2022/03/16 00:16:29;;;;;;;9.30;6.32;;;;;;;;;;5109335;28;20562;-72
2022/03/16 00:18:55;;;;;;;8.77;5.88;;;;;;;;;;5110189;28;20500;-72
2022/03/16 00:21:21;;;;;;;8.73;6.47;;;;;;;;;;5111741;28;20023;-71
2022/03/16 00:23:48;;;;;;;7.47;5.28;;;;;;;;;;5110322;28;20034;-72
2022/03/16 00:26:14;;;;;;;7.60;5.47;;;;;;;;;;5110664;28;20468;-71
2022/03/16 00:28:40;;;;;;;7.55;5.45;;;;;;;;;;5109939;28;20040;-71
2022/03/16 00:31:06;;;;;;;6.95;5.22;;;;;;;;;;5110619;28;20076;-71
2022/03/16 00:33:32;;;;;;;7.32;5.45;;;;;;;;;;5092248;28;20027;-72
2022/03/16 00:35:58;;;;;;;6.88;5.10;;;;;;;;;;5091155;28;20023;-72
2022/03/16 00:38:24;;;;;;;6.88;4.75;;;;;;;;;;5107040;28;20035;-72
2022/03/16 00:40:50;;;;;;;10.13;5.70;;;;;;;;;;5105619;28;21930;-72
2022/03/16 00:43:16;;;;;;;8.43;6.07;;;;;;;;;;5094272;28;20046;-72
2022/03/16 00:45:42;;;;;;;7.82;5.80;;;;;;;;;;5094643;28;20533;-72
2022/03/16 00:48:08;;;;;;;8.73;5.90;;;;;;;;;;5095769;28;20027;-72
2022/03/16 00:50:34;;;;;;;11.20;6.88;;;;;;;;;;5074481;28;20373;-72
2022/03/16 00:53:01;;;;;;;7.47;5.53;;;;;;;;;;5094817;28;20095;-72
2022/03/16 00:55:27;;;;;;;8.15;5.43;;;;;;;;;;5078354;28;20030;-72
2022/03/16 00:57:53;;;;;;;8.02;5.40;;;;;;;;;;5073965;28;20436;-72
2022/03/16 01:00:19;;;;;;;8.82;5.45;;;;;;;;;;5095496;28;20074;-72
2022/03/16 01:02:45;;;;;;;75.88;6.82;;;;;;;;;;5095791;28;20073;-71
2022/03/16 01:05:11;;;;;;;10.05;5.32;;;;;;;;;;5095932;28;20528;-72
2022/03/16 01:07:37;;;;;;;10.15;4.72;;;;;;;;;;5096420;28;20055;-71
2022/03/16 01:10:04;;;;;;;7.95;4.80;;;;;;;;;;5075060;28;20385;-72
2022/03/16 01:12:30;;;;;;;8.43;4.88;;;;;;;;;;5094817;28;20020;-72
2022/03/16 01:14:56;;;;;;;7.47;4.82;;;;;;;;;;5096557;28;20022;-72
2022/03/16 01:17:22;;;;;;;9.52;5.03;;;;;;;;;;5094623;28;20048;-72
2022/03/16 01:19:48;;;;;;;7.28;4.53;;;;;;;;;;5095952;28;20062;-72
2022/03/16 01:22:14;;;;;;;30.05;7.28;;;;;;;;;;5094142;28;20460;-72
2022/03/16 01:24:40;;;;;;;20.95;7.20;;;;;;;;;;5093571;28;20051;-72
2022/03/16 01:27:06;;;;;;;16.13;6.53;;;;;;;;;;5095721;28;20073;-71
2022/03/16 01:29:32;;;;;;;12.30;6.15;;;;;;;;;;5060785;28;20567;-71
2022/03/16 01:31:58;;;;;;;12.90;6.70;;;;;;;;;;5055903;28;20025;-71
2022/03/16 01:34:24;;;;;;;8.68;5.50;;;;;;;;;;5054156;28;20111;-71
2022/03/16 01:36:50;;;;;;;10.82;6.53;;;;;;;;;;5052704;28;20052;-71
2022/03/16 01:39:16;;;;;;;11.70;6.85;;;;;;;;;;5055449;28;20037;-71
2022/03/16 01:41:42;;;;;;;33.65;7.03;;;;;;;;;;5055187;28;20065;-71
2022/03/16 01:44:09;;;;;;;9.20;5.97;;;;;;;;;;5055705;28;20017;-71
2022/03/16 01:46:35;;;;;;;7.80;5.35;;;;;;;;;;5054901;28;20392;-71
2022/03/16 01:49:01;;;;;;;360.83;14.05;;;;;;;;;;5051124;28;20488;-71
2022/03/16 01:51:28;;;;;;;53.60;7.20;;;;;;;;;;5054932;28;20017;-71
2022/03/16 01:53:54;;;;;;;70.45;7.40;;;;;;;;;;5065867;28;20028;-71
2022/03/16 01:56:20;;;;;;;19.90;6.47;;;;;;;;;;5064022;28;20029;-71
2022/03/16 01:58:46;;;;;;;71.45;8.02;;;;;;;;;;5059352;28;20072;-73
2022/03/16 02:01:15;;;;;;;9.65;6.78;;;;;;;;;;5067872;28;20392;-71
2022/03/16 02:03:42;;;;;;;8.07;5.57;;;;;;;;;;5057034;28;20040;-71
2022/03/16 02:06:09;;;;;;;9.52;5.95;;;;;;;;;;5058553;28;20025;-71
2022/03/16 02:08:36;;;;;;;11.77;7.03;;;;;;;;;;5065248;28;20040;-72
2022/03/16 02:11:02;;;;;;;47.10;6.65;;;;;;;;;;5066468;28;20024;-71
2022/03/16 02:13:28;;;;;;;168.38;8.38;;;;;;;;;;5058992;28;20507;-71
2022/03/16 02:15:54;;;;;;;113.30;8.10;;;;;;;;;;5054389;28;20029;-72
2022/03/16 02:18:20;;;;;;;46.95;6.47;;;;;;;;;;5069408;28;20082;-71
2022/03/16 02:20:51;;;;;;;35.25;6.70;;;;;;;;;;5069690;28;20028;-71
2022/03/16 02:23:17;;;;;;;7.30;5.13;;;;;;;;;;5064232;28;20021;-72
2022/03/16 02:25:51;;;;;;;8.48;5.50;;;;;;;;;;5058557;28;20017;-71
2022/03/16 02:28:18;;;;;;;9.18;5.40;;;;;;;;;;5058627;28;20449;-71
2022/03/16 02:30:44;;;;;;;9.60;5.18;;;;;;;;;;5096620;28;20028;-71
2022/03/16 02:33:10;;;;;;;8.52;5.47;;;;;;;;;;5098714;28;20452;-71
2022/03/16 02:35:36;;;;;;;9.10;5.30;;;;;;;;;;5098911;28;20020;-72
2022/03/16 02:38:03;;;;;;;9.40;5.15;;;;;;;;;;5098688;28;20107;-71
2022/03/16 02:40:29;;;;;;;20.55;4.53;;;;;;;;;;5098965;28;20019;-71
2022/03/16 02:42:55;;;;;;;29.90;4.03;;;;;;;;;;5094580;28;20046;-71
2022/03/16 02:45:21;;;;;;;39.83;4.57;;;;;;;;;;5098076;28;20028;-71
2022/03/16 02:47:48;;;;;;;34.33;5.07;;;;;;;;;;5106904;28;20028;-71
2022/03/16 02:50:16;;;;;;;46.03;5.65;;;;;;;;;;5104238;28;20136;-72
2022/03/16 02:52:42;;;;;;;43.05;5.78;;;;;;;;;;5098833;28;20023;-71
2022/03/16 02:55:09;;;;;;;10.43;5.75;;;;;;;;;;5095861;28;20024;-72
2022/03/16 02:57:35;;;;;;;9.70;6.13;;;;;;;;;;5096204;28;20063;-71
2022/03/16 03:00:01;;;;;;;10.98;6.63;;;;;;;;;;5107944;28;20031;-72
2022/03/16 03:02:27;;;;;;;111.90;7.95;;;;;;;;;;5102642;28;20020;-71
2022/03/16 03:04:53;;;;;;;169.60;8.95;;;;;;;;;;5098565;28;20020;-71
2022/03/16 03:07:19;;;;;;;132.75;8.95;;;;;;;;;;5096999;28;20085;-71
2022/03/16 03:09:45;;;;;;;8.57;5.25;;;;;;;;;;5095191;28;20032;-71
2022/03/16 03:12:11;;;;;;;69.25;6.38;;;;;;;;;;5097556;28;20095;-71
2022/03/16 03:14:37;;;;;;;274.45;10.98;;;;;;;;;;5098509;28;20057;-71
2022/03/16 03:17:03;;;;;;;105.60;6.25;;;;;;;;;;5099951;27;20076;-72
2022/03/16 03:19:29;;;;;;;20.90;5.22;;;;;;;;;;5110021;28;20111;-71
2022/03/16 03:21:55;;;;;;;15.95;4.82;;;;;;;;;;5093810;28;20093;-72
2022/03/16 03:24:21;;;;;;;25.17;5.00;;;;;;;;;;5097518;28;20052;-72
2022/03/16 03:26:48;;;;;;;8.20;4.70;;;;;;;;;;5077074;28;20453;-71
2022/03/16 03:29:14;;;;;;;6.72;4.60;;;;;;;;;;5098078;28;20044;-72
2022/03/16 03:31:40;;;;;;;7.88;4.25;;;;;;;;;;5097819;28;20120;-72
2022/03/16 03:34:06;;;;;;;5.90;3.95;;;;;;;;;;5094691;28;20024;-72
2022/03/16 03:36:32;;;;;;;5.95;4.13;;;;;;;;;;5095714;28;20145;-72
2022/03/16 03:38:58;;;;;;;7.32;4.70;;;;;;;;;;5098580;28;20028;-72
2022/03/16 03:41:24;;;;;;;6.78;4.68;;;;;;;;;;5098024;28;20039;-72
2022/03/16 03:43:50;;;;;;;6.60;4.30;;;;;;;;;;5097626;28;20039;-71
2022/03/16 03:46:16;;;;;;;7.32;4.45;;;;;;;;;;5078331;28;20464;-71
2022/03/16 03:48:42;;;;;;;7.47;4.60;;;;;;;;;;5095040;28;20122;-72
2022/03/16 03:51:08;;;;;;;7.72;4.72;;;;;;;;;;5097390;28;20020;-71
2022/03/16 03:53:34;;;;;;;8.73;4.90;;;;;;;;;;5097126;27;20113;-72
2022/03/16 03:56:00;;;;;;;8.00;4.85;;;;;;;;;;5096898;28;20453;-72
2022/03/16 03:58:26;;;;;;;8.00;4.13;;;;;;;;;;5097068;28;20472;-71
2022/03/16 04:00:53;;;;;;;7.50;4.72;;;;;;;;;;5075024;28;20031;-72
2022/03/16 04:03:19;;;;;;;6.93;4.40;;;;;;;;;;5096623;28;20035;-71
2022/03/16 04:05:45;;;;;;;7.00;4.40;;;;;;;;;;5104931;28;20059;-71
2022/03/16 04:08:11;;;;;;;9.00;4.93;;;;;;;;;;5084949;28;20521;-72
2022/03/16 04:10:38;;;;;;;8.43;5.03;;;;;;;;;;5097100;28;20110;-71
2022/03/16 04:13:05;;;;;;;6.30;4.55;;;;;;;;;;5093693;28;20481;-71
2022/03/16 04:15:31;;;;;;;7.40;4.72;;;;;;;;;;5095404;28;20473;-72
2022/03/16 04:17:57;;;;;;;6.97;4.65;;;;;;;;;;5096688;28;20020;-71
2022/03/16 04:20:23;;;;;;;8.32;5.07;;;;;;;;;;5097270;28;20031;-71
2022/03/16 04:22:49;;;;;;;9.55;5.53;;;;;;;;;;5097186;28;20034;-71
2022/03/16 04:25:15;;;;;;;8.25;5.78;;;;;;;;;;5094656;28;20114;-67
2022/03/16 04:27:41;;;;;;;7.53;5.43;;;;;;;;;;5094389;28;20121;-67
2022/03/16 04:30:07;;;;;;;7.38;5.25;;;;;;;;;;5095921;28;20052;-67
2022/03/16 04:32:33;;;;;;;7.55;4.70;;;;;;;;;;5097156;28;20475;-67
2022/03/16 04:34:59;;;;;;;7.55;4.53;;;;;;;;;;5096969;28;20028;-67
2022/03/16 04:37:25;;;;;;;138.32;9.15;;;;;;;;;;5095479;28;20051;-66
2022/03/16 04:39:51;;;;;;;6.93;4.93;;;;;;;;;;5093144;28;20035;-67
2022/03/16 04:42:17;;;;;;;7.40;4.80;;;;;;;;;;5096351;28;20030;-67
2022/03/16 04:44:43;;;;;;;7.65;4.70;;;;;;;;;;5104090;28;20057;-67
2022/03/16 04:47:09;;;;;;;7.40;4.70;;;;;;;;;;5102741;28;20051;-67
2022/03/16 04:49:35;;;;;;;8.60;4.88;;;;;;;;;;5096545;28;20039;-66
2022/03/16 04:52:01;;;;;;;12.05;5.85;;;;;;;;;;5092261;28;20023;-66
2022/03/16 04:54:28;;;;;;;14.07;5.63;;;;;;;;;;5095648;28;20054;-68
2022/03/16 04:56:55;;;;;;;7.72;5.00;;;;;;;;;;5105839;28;20027;-67
2022/03/16 04:59:21;;;;;;;8.35;5.47;;;;;;;;;;5100675;28;20032;-68
2022/03/16 05:01:47;;;;;;;7.53;5.28;;;;;;;;;;5096414;28;20516;-68
2022/03/16 05:04:13;;;;;;;8.65;5.68;;;;;;;;;;5076505;28;20032;-67
2022/03/16 05:06:39;;;;;;;8.20;5.55;;;;;;;;;;5076022;28;20055;-68
2022/03/16 05:09:05;;;;;;;10.65;6.30;;;;;;;;;;5095867;28;20036;-67
2022/03/16 05:11:31;;;;;;;11.10;6.28;;;;;;;;;;5096176;28;20020;-67
2022/03/16 05:13:57;;;;;;;11.32;6.45;;;;;;;;;;5096449;28;20035;-67
2022/03/16 05:16:23;;;;;;;11.10;6.45;;;;;;;;;;5095063;28;20382;-67
2022/03/16 05:18:49;;;;;;;56.13;7.43;;;;;;;;;;5093061;28;20070;-67
2022/03/16 05:21:15;;;;;;;8.88;6.07;;;;;;;;;;5095555;28;20036;-67
2022/03/16 05:23:41;;;;;;;9.70;6.28;;;;;;;;;;5103123;28;20027;-66
2022/03/16 05:26:07;;;;;;;8.18;5.53;;;;;;;;;;5103002;28;20121;-67
2022/03/16 05:28:35;;;;;;;11.32;7.00;;;;;;;;;;5096055;28;20050;-67
2022/03/16 05:31:01;;;;;;;12.70;7.32;;;;;;;;;;5096126;28;20117;-67
2022/03/16 05:33:26;;;;;;;9.52;5.85;;;;;;;;;;5099965;28;20469;-67
2022/03/16 05:35:52;;;;;;;8.60;5.88;;;;;;;;;;5082669;28;20024;-67
2022/03/16 05:38:18;;;;;;;9.88;6.03;;;;;;;;;;5104516;28;20502;-66
2022/03/16 05:40:45;;;;;;;8.63;5.80;;;;;;;;;;5110095;28;20082;-67
2022/03/16 05:43:12;;;;;;;9.07;5.28;;;;;;;;;;5079375;28;20035;-67
2022/03/16 05:45:38;;;;;;;9.00;5.43;;;;;;;;;;5097276;28;20028;-66
2022/03/16 05:48:04;;;;;;;106.40;10.43;;;;;;;;;;5100267;28;20028;-67
2022/03/16 05:50:31;;;;;;;11.05;6.75;;;;;;;;;;5100382;28;19970;-68
2022/03/16 05:52:57;;;;;;;10.88;6.57;;;;;;;;;;5099531;28;20085;-70
2022/03/16 05:55:23;;;;;;;10.52;7.22;;;;;;;;;;5098692;28;20031;-71
2022/03/16 05:57:50;;;;;;;10.73;6.80;;;;;;;;;;5096832;28;20043;-70
2022/03/16 06:00:17;;;;;;;10.07;6.22;;;;;;;;;;5099472;28;20035;-71
2022/03/16 06:02:46;;;;;;;10.65;6.97;;;;;;;;;;5078688;28;20055;-71
2022/03/16 06:05:13;;;;;;;9.05;5.70;;;;;;;;;;5081954;28;20490;-71
2022/03/16 06:07:39;;;;;;;9.52;6.32;;;;;;;;;;5099500;28;20046;-70
2022/03/16 06:10:09;;;;;;;12.27;6.30;;;;;;;;;;5078441;28;20492;-71
2022/03/16 06:12:49;;;;;;;8.50;5.20;;;;;;;;;;5078669;28;20487;-71
2022/03/16 06:15:15;;;;;;;10.63;6.22;;;;;;;;;;5099409;28;20028;-70
2022/03/16 06:17:41;;;;;;;11.32;6.10;;;;;;;;;;5099396;28;20496;-71
2022/03/16 06:20:07;;;;;;;12.07;6.93;;;;;;;;;;5099680;28;20072;-71
2022/03/16 06:22:33;;;;;;;14.75;9.70;;;;;;;;;;5098999;28;20023;-71
2022/03/16 06:24:59;;;;;;;15.95;10.95;;;;;;;;;;5095158;28;20030;-72
2022/03/16 06:27:25;;;;;;;10.93;7.57;;;;;;;;;;5110332;28;20055;-71
2022/03/16 06:29:50;;;;;;;9.10;6.20;;;;;;;;;;5099168;28;20511;-71
2022/03/16 06:32:16;;;;;;;10.38;6.20;;;;;;;;;;5099015;28;20074;-70
2022/03/16 06:34:42;;;;;;;10.48;6.90;;;;;;;;;;5099160;28;20030;-70
2022/03/16 06:37:08;;;;;;;8.38;5.68;;;;;;;;;;5077395;28;20035;-71
2022/03/16 06:39:34;;;;;;;10.93;6.65;;;;;;;;;;5096156;28;20460;-71
2022/03/16 06:42:00;;;;;;;12.63;7.63;;;;;;;;;;5108195;28;20043;-70
2022/03/16 06:44:26;;;;;;;12.00;7.07;;;;;;;;;;5103144;28;20051;-70
2022/03/16 06:46:52;;;;;;;13.25;8.80;;;;;;;;;;5101926;28;20077;-71
2022/03/16 06:49:18;;;;;;;12.55;8.80;;;;;;;;;;5110770;28;20093;-70
2022/03/16 06:51:44;;;;;;;11.98;8.13;;;;;;;;;;5077783;28;20469;-71
2022/03/16 06:54:10;;;;;;;9.40;7.15;;;;;;;;;;5079531;28;20118;-70
2022/03/16 06:56:36;;;;;;;8.55;5.75;;;;;;;;;;5098630;28;20019;-71
2022/03/16 06:59:02;;;;;;;7.60;5.57;;;;;;;;;;5098724;28;20027;-70
2022/03/16 07:01:28;;;;;;;7.68;5.07;;;;;;;;;;5080422;28;20039;-70
2022/03/16 07:03:54;;;;;;;7.15;5.07;;;;;;;;;;5094698;28;20085;-69
2022/03/16 07:06:20;;;;;;;7.88;5.88;;;;;;;;;;5097463;28;20031;-65
2022/03/16 07:08:46;;;;;;;8.38;6.10;;;;;;;;;;5080827;28;20032;-65
2022/03/16 07:11:13;;;;;;;8.27;6.13;;;;;;;;;;5098309;28;20102;-65
2022/03/16 07:13:41;;;;;;;7.97;5.88;;;;;;;;;;5098268;28;20020;-64
2022/03/16 07:16:08;;;;;;;7.95;6.38;;;;;;;;;;5094678;28;20023;-65
2022/03/16 07:18:34;;;;;;;8.18;5.38;;;;;;;;;;5078401;28;20028;-64
2022/03/16 07:21:00;;;;;;;7.22;5.10;;;;;;;;;;5107708;28;20055;-65
2022/03/16 07:23:26;;;;;;;9.10;5.80;;;;;;;;;;5084372;28;20069;-65
2022/03/16 07:25:52;;;;;;;11.45;6.47;;;;;;;;;;5079965;28;20044;-65
2022/03/16 07:28:20;;;;;;;7.32;4.95;;;;;;;;;;5095698;28;20012;-65
2022/03/16 07:30:47;;;;;;;7.45;4.88;;;;;;;;;;5095379;28;20020;-65
2022/03/16 07:33:13;;;;;;;7.15;4.97;;;;;;;;;;5097390;28;20016;-65
2022/03/16 07:35:39;;;;;;;9.68;4.35;;;;;;;;;;5098135;28;20020;-65
2022/03/16 07:38:05;;;;;;;4.63;3.45;;;;;;;;;;5097841;28;20027;-65
2022/03/16 07:40:33;;;;;;;7.70;3.83;;;;;;;;;;5097602;28;20140;-65
2022/03/16 07:43:00;;;;;;;5.25;3.83;;;;;;;;;;5093765;28;20027;-64
2022/03/16 07:45:26;;;;;;;4.68;3.70;;;;;;;;;;5090565;28;20088;-64
2022/03/16 07:47:58;;;;;;;5.82;3.28;;;;;;;;;;5098117;28;20059;-65
2022/03/16 07:50:25;;;;;;;4.30;3.38;;;;;;;;;;5097477;28;20036;-65
2022/03/16 07:52:51;;;;;;;4.40;3.17;;;;;;;;;;5097168;28;20031;-66
2022/03/16 07:55:17;;;;;;;4.07;3.15;;;;;;;;;;5077994;28;20024;-65
2022/03/16 07:57:44;;;;;;;4.22;2.90;;;;;;;;;;5075857;28;20095;-65
2022/03/16 08:00:11;;;;;;;4.53;2.92;;;;;;;;;;5097217;28;20025;-65
2022/03/16 08:02:37;;;;;;;3.67;2.60;;;;;;;;;;5079307;28;20031;-65
2022/03/16 08:05:03;;;;;;;3.33;2.75;;;;;;;;;;5097356;28;20078;-66
2022/03/16 08:07:29;;;;;;;4.68;2.78;;;;;;;;;;5096972;28;20024;-65
2022/03/16 08:09:56;;;;;;;5.55;3.28;;;;;;;;;;5092943;28;20042;-66
2022/03/16 08:12:22;;;;;;;4.28;2.80;;;;;;;;;;5078599;28;20065;-65
2022/03/16 08:14:48;;;;;;;4.57;2.50;;;;;;;;;;5097062;28;20036;-66
2022/03/16 08:17:14;;;;;;;6.03;2.85;;;;;;;;;;5097081;28;20558;-65
2022/03/16 08:19:40;;;;;;;5.22;2.80;;;;;;;;;;5097323;28;20033;-66
2022/03/16 08:22:06;;;;;;;3.80;2.60;;;;;;;;;;5093144;28;20031;-68
2022/03/16 08:24:32;;;;;;;4.32;2.65;;;;;;;;;;5077080;28;20099;-68
2022/03/16 08:26:58;;;;;;;4.70;2.58;;;;;;;;;;5079185;28;20049;-68
2022/03/16 08:29:24;;;;;;;3.55;2.60;;;;;;;;;;5078405;28;20148;-69
2022/03/16 08:31:50;;;;;;;4.40;2.63;;;;;;;;;;5079009;28;20028;-69
2022/03/16 08:34:18;;;;;;;4.18;2.88;;;;;;;;;;5094771;28;20020;-69
2022/03/16 08:36:44;;;;;;;4.78;2.83;;;;;;;;;;5093846;28;20020;-68
2022/03/16 08:39:10;;;;;;;5.35;2.78;;;;;;;;;;5089102;28;20035;-68
2022/03/16 08:41:36;;;;;;;4.93;3.38;;;;;;;;;;5099526;28;20016;-69
2022/03/16 08:44:02;;;;;;;5.03;2.92;;;;;;;;;;5078667;28;20148;-69
2022/03/16 08:46:29;;;;;;;3.40;2.60;;;;;;;;;;5096204;28;20023;-68
2022/03/16 08:48:55;;;;;;;4.90;2.53;;;;;;;;;;5092629;28;20032;-69
2022/03/16 08:51:21;;;;;;;4.22;2.53;;;;;;;;;;5096059;28;20450;-68
2022/03/16 08:53:47;;;;;;;5.25;2.70;;;;;;;;;;5106267;28;20023;-69
2022/03/16 08:56:13;;;;;;;4.90;2.50;;;;;;;;;;5109609;28;20096;-68
2022/03/16 08:58:39;;;;;;;4.78;2.60;;;;;;;;;;5109689;28;20040;-68
2022/03/16 09:01:06;;;;;;;4.72;2.00;;;;;;;;;;5090851;28;20505;-69
2022/03/16 09:03:32;;;;;;;3.58;2.00;;;;;;;;;;5110801;28;20012;-70
2022/03/16 09:05:59;;;;;;;4.00;2.00;;;;;;;;;;5110520;28;20016;-69
2022/03/16 09:08:25;;;;;;;5.70;2.22;;;;;;;;;;5109288;28;20031;-70
2022/03/16 09:10:51;;;;;;;4.43;2.00;;;;;;;;;;5109680;28;20038;-70
2022/03/16 09:13:19;;;;;;;2.80;1.50;;;;;;;;;;5091332;28;20023;-69
2022/03/16 09:15:45;;;;;;;2.42;1.77;;;;;;;;;;5109374;28;20045;-70
2022/03/16 09:18:11;;;;;;;2.42;1.40;;;;;;;;;;5110890;28;20058;-69
2022/03/16 09:20:38;;;;;;;2.75;1.70;;;;;;;;;;5109448;28;20047;-69
2022/03/16 09:23:04;;;;;;;4.97;2.03;;;;;;;;;;5109043;28;20059;-69
2022/03/16 09:25:30;;;;;;;3.67;1.85;;;;;;;;;;5091458;28;20020;-69
2022/03/16 09:27:56;;;;;;;3.53;1.85;;;;;;;;;;5110183;28;20039;-69
2022/03/16 09:30:23;;;;;;;4.55;2.03;;;;;;;;;;5110834;28;20040;-70
2022/03/16 09:32:49;;;;;;;2.33;1.73;;;;;;;;;;5091191;28;20016;-69
2022/03/16 09:35:15;;;;;;;3.38;1.70;;;;;;;;;;5109795;28;20027;-69
2022/03/16 09:37:41;;;;;;;2.95;1.90;;;;;;;;;;5109648;28;20016;-70
2022/03/16 09:40:08;;;;;;;3.78;1.90;;;;;;;;;;5109852;28;20019;-69
2022/03/16 09:42:34;;;;;;;3.72;1.98;;;;;;;;;;5110436;28;20026;-69
2022/03/16 09:45:02;;;;;;;4.07;2.05;;;;;;;;;;5091771;28;20024;-68
2022/03/16 09:47:29;;;;;;;5.18;1.90;;;;;;;;;;5109474;28;20064;-68
2022/03/16 09:49:55;;;;;;;2.83;1.98;;;;;;;;;;5108779;28;20032;-68
2022/03/16 09:52:23;;;;;;;4.55;1.80;;;;;;;;;;5109858;28;20047;-68
2022/03/16 09:54:52;;;;;;;4.00;1.75;;;;;;;;;;5108411;28;20421;-68
2022/03/16 09:57:19;;;;;;;5.60;2.00;;;;;;;;;;5110637;28;20023;-68
2022/03/16 09:59:45;;;;;;;5.43;2.30;;;;;;;;;;5109375;28;20415;-68
2022/03/16 10:02:15;;;;;;;3.95;1.92;;;;;;;;;;5109504;28;20027;-68
2022/03/16 10:04:42;;;;;;;3.13;1.75;;;;;;;;;;5109702;28;20055;-69
2022/03/16 10:07:08;;;;;;;3.95;1.80;;;;;;;;;;5109188;28;20020;-69
2022/03/16 10:15:06;;;;;;;4.38;2.42;;;;;;;;;;5111394;28;20038;-69
2022/03/16 10:17:45;;;;;;;3.97;2.10;;;;;;;;;;5113180;28;20080;-71
2022/03/16 10:20:28;;;;;;;4.07;2.35;;;;;;;;;;5110141;28;20085;-69
2022/03/16 10:22:54;;;;;;;3.13;1.90;;;;;;;;;;5109883;28;20020;-69
2022/03/16 10:25:21;;;;;;;4.75;2.10;;;;;;;;;;5113078;28;20035;-70
2022/03/16 10:27:47;;;;;;;5.00;1.90;;;;;;;;;;5112774;28;20019;-69
2022/03/16 10:30:13;;;;;;;4.18;1.90;;;;;;;;;;5114157;28;20116;-70
2022/03/16 10:32:39;;;;;;;3.92;2.00;;;;;;;;;;5112825;28;20030;-69
2022/03/16 10:35:05;;;;;;;2.65;2.08;;;;;;;;;;5111994;28;20032;-70
2022/03/16 10:37:33;;;;;;;3.92;1.85;;;;;;;;;;5112376;28;20024;-70
2022/03/16 10:39:59;;;;;;;4.25;1.77;;;;;;;;;;5111166;28;20015;-70
2022/03/16 10:48:12;;;;;;;3.28;1.48;;;;;;;;;;5109063;28;20034;-69
2022/03/16 10:50:41;;;;;;;5.20;1.70;;;;;;;;;;5092619;28;20042;-69
2022/03/16 10:53:08;;;;;;;2.95;1.52;;;;;;;;;;5121727;27;20030;-69
2022/03/16 10:55:35;;;;;;;2.83;1.70;;;;;;;;;;5101708;27;20024;-70
2022/03/16 10:58:02;;;;;;;4.43;2.00;;;;;;;;;;5124983;27;20076;-71
2022/03/16 11:00:28;;;;;;;3.47;1.60;;;;;;;;;;5123070;27;20518;-69
2022/03/16 11:02:56;;;;;;;4.22;1.60;;;;;;;;;;5122275;27;20035;-71
2022/03/16 11:05:23;;;;;;;4.97;1.80;;;;;;;;;;5120372;27;20024;-71
2022/03/16 11:07:50;;;;;;;3.33;1.63;;;;;;;;;;5121840;27;20053;-68
2022/03/16 11:10:17;;;;;;;2.45;1.40;;;;;;;;;;5122750;27;20519;-72
2022/03/16 11:15:30;;;;;;;3.58;1.67;;;;;;;;;;5123570;27;20340;-73
2022/03/16 11:17:56;;;;;;;4.88;1.50;;;;;;;;;;5103238;27;20047;-67
2022/03/16 11:20:23;;;;;;;3.28;1.50;;;;;;;;;;5103428;27;20150;-67
2022/03/16 11:26:00;;;;;;;2.45;1.30;;;;;;;;;;5118793;27;20118;-66
2022/03/16 11:28:35;;;;;;;4.68;1.80;;;;;;;;;;5119265;27;20027;-66
2022/03/16 11:31:01;;;;;;;3.63;1.70;;;;;;;;;;5119466;27;20020;-66
2022/03/16 11:33:27;;;;;;;2.78;1.42;;;;;;;;;;5105826;27;20434;-67
2022/03/16 11:35:55;;;;;;;2.92;1.55;;;;;;;;;;5103537;27;20083;-66
2022/03/16 11:38:21;;;;;;;5.05;1.58;;;;;;;;;;5103473;27;20034;-67
2022/03/16 11:40:49;;;;;;;2.13;1.50;;;;;;;;;;5109478;28;20020;-66
2022/03/16 11:43:25;;;;;;;3.05;1.55;;;;;;;;;;5111392;28;20019;-65
2022/03/16 11:45:54;;;;;;;2.88;1.73;;;;;;;;;;5091791;28;20398;-66
2022/03/16 11:48:33;;;;;;;4.05;1.90;;;;;;;;;;5112368;28;20019;-67
2022/03/16 11:51:14;;;;;;;4.30;1.80;;;;;;;;;;5093728;28;20536;-67
2022/03/16 11:54:05;;;;;;;4.00;1.90;;;;;;;;;;5092837;28;20042;-67
2022/03/16 11:56:45;;;;;;;2.33;1.73;;;;;;;;;;5100298;28;20032;-67
2022/03/16 11:59:17;;;;;;;6.38;2.00;;;;;;;;;;5079435;28;20026;-67
2022/03/16 12:01:48;;;;;;;7.60;1.85;;;;;;;;;;5105983;28;20023;-73
2022/03/16 12:04:15;;;;;;;3.50;1.98;;;;;;;;;;5095028;28;20023;-73
2022/03/16 12:07:02;;;;;;;4.03;1.83;;;;;;;;;;5077018;28;20426;-65
2022/03/16 12:09:40;;;;;;;3.22;2.15;;;;;;;;;;5108394;28;20035;-66
2022/03/16 12:15:12;;;;;;;3.97;2.30;;;;;;;;;;5106844;28;20070;-66
2022/03/16 12:17:42;;;;;;;3.20;2.10;;;;;;;;;;5099648;28;20062;-67
2022/03/16 12:20:11;;;;;;;2.75;2.00;;;;;;;;;;5097140;28;20031;-66
2022/03/16 12:22:47;;;;;;;4.55;2.42;;;;;;;;;;5080996;28;20068;-65
2022/03/16 12:25:30;;;;;;;3.08;1.90;;;;;;;;;;5110099;28;20020;-65
2022/03/16 12:30:46;;;;;;;3.55;2.15;;;;;;;;;;5070271;28;20055;-65
2022/03/16 12:33:19;;;;;;;3.20;2.00;;;;;;;;;;5054853;28;20085;-64
2022/03/16 12:35:49;;;;;;;4.03;2.22;;;;;;;;;;5056343;28;20090;-63
2022/03/16 12:38:16;;;;;;;4.90;2.03;;;;;;;;;;5056184;28;20028;-62
2022/03/16 12:43:27;;;;;;;3.30;2.10;;;;;;;;;;5054879;28;20080;-63
2022/03/16 12:45:58;;;;;;;3.53;1.88;;;;;;;;;;5050782;28;20123;-65
2022/03/16 12:48:26;;;;;;;3.53;2.10;;;;;;;;;;5055035;28;20024;-64
2022/03/16 12:50:52;;;;;;;4.07;1.98;;;;;;;;;;5055818;28;20158;-64
2022/03/16 12:53:44;;;;;;;3.20;2.00;;;;;;;;;;5055186;28;20496;-64
2022/03/16 12:56:11;;;;;;;3.28;1.80;;;;;;;;;;5055649;28;20048;-64
2022/03/16 12:58:38;;;;;;;3.45;2.40;;;;;;;;;;5055432;28;20803;-63
2022/03/16 13:01:04;;;;;;;7.85;2.13;;;;;;;;;;5051187;28;20078;-63
2022/03/16 13:03:30;;;;;;;3.53;1.70;;;;;;;;;;5054313;28;20543;-62
2022/03/16 13:05:56;;;;;;;3.78;1.95;;;;;;;;;;5064065;28;20103;-62
2022/03/16 13:08:23;;;;;;;2.88;1.95;;;;;;;;;;5059342;28;20053;-63
2022/03/16 13:11:15;;;;;;;5.57;1.77;;;;;;;;;;5055197;28;20042;-62
2022/03/16 13:13:47;;;;;;;5.93;2.30;;;;;;;;;;5054770;28;20432;-62
2022/03/16 13:16:34;;;;;;;3.17;1.80;;;;;;;;;;5052906;28;20025;-62
2022/03/16 13:19:00;;;;;;;4.65;2.00;;;;;;;;;;5050076;28;20021;-62
2022/03/16 13:21:27;;;;;;;3.35;1.85;;;;;;;;;;5065615;28;20021;-63
2022/03/16 13:24:07;;;;;;;2.88;1.92;;;;;;;;;;5054761;28;20494;-64
2022/03/16 13:26:34;;;;;;;3.38;1.92;;;;;;;;;;5054277;28;20033;-63
2022/03/16 13:29:02;;;;;;;4.60;2.10;;;;;;;;;;5067278;28;20075;-64
2022/03/16 13:31:28;;;;;;;2.53;1.90;;;;;;;;;;5093773;28;20272;-63
2022/03/16 13:33:55;;;;;;;4.57;2.15;;;;;;;;;;5090331;28;20413;-64
2022/03/16 13:36:32;;;;;;;2.22;1.67;;;;;;;;;;5093870;28;20048;-65
2022/03/16 13:38:58;;;;;;;3.58;1.60;;;;;;;;;;5095187;28;20024;-63
2022/03/16 13:41:24;;;;;;;4.20;1.95;;;;;;;;;;5098086;28;20115;-64
2022/03/16 13:44:01;;;;;;;3.25;1.85;;;;;;;;;;5087870;28;20217;-63
2022/03/16 13:46:37;;;;;;;5.70;2.07;;;;;;;;;;5093305;28;20069;-64
2022/03/16 13:49:10;;;;;;;3.90;2.10;;;;;;;;;;5091318;28;20613;-65
2022/03/16 13:51:36;;;;;;;3.35;1.90;;;;;;;;;;5108891;28;20490;-63
2022/03/16 13:54:05;;;;;;;3.65;1.95;;;;;;;;;;5108022;28;20387;-64
2022/03/16 13:56:37;;;;;;;4.28;2.03;;;;;;;;;;5101051;28;20027;-64
2022/03/16 13:59:11;;;;;;;4.05;2.10;;;;;;;;;;5097561;28;20032;-67
2022/03/16 14:01:37;;;;;;;2.95;1.70;;;;;;;;;;5098040;28;20058;-65
2022/03/16 14:04:04;;;;;;;4.53;2.22;;;;;;;;;;5092817;28;20536;-65
2022/03/16 14:06:58;;;;;;;6.10;2.13;;;;;;;;;;5096309;28;20031;-64
2022/03/16 14:09:25;;;;;;;3.05;1.95;;;;;;;;;;5104997;28;20721;-64
2022/03/16 14:11:52;;;;;;;6.67;2.57;;;;;;;;;;5098098;28;20107;-65
2022/03/16 14:14:19;;;;;;;3.45;2.22;;;;;;;;;;5096879;28;20024;-64
2022/03/16 14:16:54;;;;;;;4.30;2.30;;;;;;;;;;5095432;28;20086;-64
2022/03/16 14:19:30;;;;;;;4.35;2.10;;;;;;;;;;5108603;28;20027;-64
2022/03/16 14:21:57;;;;;;;4.53;2.50;;;;;;;;;;5093095;28;20107;-65
2022/03/16 14:24:25;;;;;;;3.80;1.93;;;;;;;;;;5096997;28;20028;-65
2022/03/16 14:26:51;;;;;;;4.28;1.83;;;;;;;;;;5104244;28;20051;-66
2022/03/16 14:29:19;;;;;;;3.95;2.20;;;;;;;;;;5105665;28;20051;-66
2022/03/16 14:31:45;;;;;;;4.30;2.25;;;;;;;;;;5105961;28;20019;-66
2022/03/16 14:34:12;;;;;;;2.38;1.80;;;;;;;;;;5092904;28;20035;-65
2022/03/16 14:36:38;;;;;;;3.17;2.05;;;;;;;;;;5094186;28;20072;-65
2022/03/16 14:39:04;;;;;;;3.00;1.90;;;;;;;;;;5096801;28;20020;-66
2022/03/16 14:41:30;;;;;;;3.92;2.10;;;;;;;;;;5095093;28;20569;-66
2022/03/16 14:43:56;;;;;;;2.97;2.00;;;;;;;;;;5096267;28;20089;-65
2022/03/16 14:46:22;;;;;;;4.10;1.90;;;;;;;;;;5093153;28;20529;-65
2022/03/16 14:48:48;;;;;;;4.35;1.83;;;;;;;;;;5091217;28;20157;-65
2022/03/16 14:51:14;;;;;;;3.40;1.67;;;;;;;;;;5093990;28;20092;-65
2022/03/16 14:53:40;;;;;;;3.15;1.70;;;;;;;;;;5075912;28;20028;-64
2022/03/16 14:56:06;;;;;;;3.45;2.00;;;;;;;;;;5095421;28;20251;-65
2022/03/16 14:58:32;;;;;;;3.50;2.17;;;;;;;;;;5095366;28;20404;-68
2022/03/16 15:00:58;;;;;;;3.47;1.90;;;;;;;;;;5089195;28;20034;-67
2022/03/16 15:03:24;;;;;;;3.13;1.88;;;;;;;;;;5095265;28;20053;-64
2022/03/16 15:05:50;;;;;;;3.67;1.77;;;;;;;;;;5095756;28;20463;-67
2022/03/16 15:08:18;;;;;;;3.78;2.28;;;;;;;;;;5093736;28;20152;-67